createdAt,value
2019-02-16T00:00:43.660Z,5.30
2019-02-16T00:03:13.116Z,7.40
2019-02-16T00:05:42.657Z,6.30
2019-02-16T00:08:12.171Z,4.63
2019-02-16T00:10:42.625Z,5.47
2019-02-16T00:13:12.093Z,6.70
2019-02-16T00:15:41.547Z,4.97
2019-02-16T00:18:11.024Z,6.13
2019-02-16T00:20:40.483Z,5.90
2019-02-16T00:23:09.939Z,7.00
2019-02-16T00:25:39.411Z,6.60
2019-02-16T00:28:08.856Z,4.80
2019-02-16T00:30:38.339Z,7.23
2019-02-16T00:33:07.790Z,4.90
2019-02-16T00:35:37.249Z,6.90
2019-02-16T00:38:06.725Z,10.40
2019-02-16T00:40:36.179Z,8.37
2019-02-16T00:43:05.653Z,7.12
2019-02-16T00:45:35.103Z,8.70
2019-02-16T00:48:04.568Z,8.63
2019-02-16T00:50:34.954Z,8.80
2019-02-16T00:53:04.361Z,9.90
2019-02-16T00:55:33.816Z,14.33
2019-02-16T00:58:03.294Z,16.70
2019-02-16T01:00:32.746Z,13.07
2019-02-16T01:03:02.199Z,14.80
2019-02-16T01:05:31.673Z,12.00
2019-02-16T01:08:01.125Z,10.60
2019-02-16T01:10:30.587Z,7.87
2019-02-16T01:13:00.078Z,9.90
2019-02-16T01:15:29.526Z,10.57
2019-02-16T01:17:59.029Z,12.20
2019-02-16T01:20:28.496Z,9.87
2019-02-16T01:22:57.941Z,9.55
2019-02-16T01:25:27.393Z,8.80
2019-02-16T01:27:56.859Z,8.60
2019-02-16T01:30:26.317Z,9.33
2019-02-16T01:32:55.801Z,6.60
2019-02-16T01:35:25.261Z,6.73
2019-02-16T01:37:54.701Z,8.27
2019-02-16T01:40:24.173Z,7.27
2019-02-16T01:42:53.629Z,7.20
2019-02-16T01:45:23.099Z,7.87
2019-02-16T01:47:52.576Z,8.00
2019-02-16T01:50:22.146Z,7.27
2019-02-16T01:52:51.595Z,7.10
2019-02-16T01:55:21.070Z,8.73
2019-02-16T01:57:50.525Z,7.77
2019-02-16T02:00:19.989Z,9.63
2019-02-16T02:02:49.467Z,6.90
2019-02-16T02:05:19.024Z,6.27
2019-02-16T02:07:48.722Z,7.87
2019-02-16T02:10:18.177Z,7.07
2019-02-16T02:12:47.652Z,6.63
2019-02-16T02:15:17.109Z,7.30
2019-02-16T02:17:46.578Z,6.90
2019-02-16T02:20:16.035Z,9.48
2019-02-16T02:22:45.501Z,8.70
2019-02-16T02:25:14.976Z,7.83
2019-02-16T02:27:44.431Z,8.70
2019-02-16T02:30:13.902Z,7.10
2019-02-16T02:32:43.369Z,9.53
2019-02-16T02:35:12.862Z,10.50
2019-02-16T02:37:42.323Z,85.90
2019-02-16T02:40:12.071Z,10.20
2019-02-16T02:42:41.506Z,12.75
2019-02-16T02:45:11.945Z,8.27
2019-02-16T02:47:41.414Z,6.40
2019-02-16T02:50:10.898Z,7.83
2019-02-16T02:52:40.359Z,8.43
2019-02-16T02:55:09.957Z,6.97
2019-02-16T02:57:39.436Z,6.40
2019-02-16T03:00:10.828Z,7.77
2019-02-16T03:02:40.295Z,7.00
2019-02-16T03:05:11.103Z,6.03
2019-02-16T03:07:40.567Z,7.00
2019-02-16T03:10:10.052Z,6.83
2019-02-16T03:12:39.524Z,7.30
2019-02-16T03:15:09.464Z,8.60
2019-02-16T03:17:38.943Z,9.17
2019-02-16T03:20:08.538Z,9.80
2019-02-16T03:23:18.566Z,7.70
2019-02-16T03:26:10.761Z,5.47
2019-02-16T03:28:53.629Z,6.07
2019-02-16T03:31:39.300Z,6.33
2019-02-16T03:34:36.913Z,12.47
2019-02-16T03:37:36.251Z,6.37
2019-02-16T03:40:09.096Z,7.37
2019-02-16T03:42:38.818Z,6.35
2019-02-16T03:45:08.526Z,7.00
2019-02-16T03:47:38.001Z,6.35
2019-02-16T03:50:09.502Z,8.93
2019-02-16T03:52:38.983Z,7.33
2019-02-16T03:55:08.508Z,6.92
2019-02-16T03:57:37.992Z,7.35
2019-02-16T04:00:10.350Z,7.33
2019-02-16T04:02:39.830Z,7.50
2019-02-16T04:05:09.644Z,6.13
2019-02-16T04:07:39.098Z,7.20
2019-02-16T04:10:08.705Z,7.47
2019-02-16T04:12:38.191Z,6.55
2019-02-16T04:15:08.008Z,7.77
2019-02-16T04:17:37.485Z,6.40
2019-02-16T04:20:08.105Z,5.80
2019-02-16T04:22:37.546Z,7.40
2019-02-16T04:25:07.029Z,8.00
2019-02-16T04:27:36.514Z,5.90
2019-02-16T04:30:07.785Z,8.47
2019-02-16T04:32:37.261Z,6.33
2019-02-16T04:35:07.300Z,6.70
2019-02-16T04:37:36.754Z,8.35
2019-02-16T04:40:06.309Z,7.87
2019-02-16T04:42:35.794Z,5.83
2019-02-16T04:45:06.405Z,9.37
2019-02-16T04:47:35.862Z,6.80
2019-02-16T04:50:05.884Z,7.20
2019-02-16T04:52:35.456Z,7.30
2019-02-16T04:55:05.906Z,7.03
2019-02-16T04:57:35.388Z,9.20
2019-02-16T05:00:05.751Z,6.17
2019-02-16T05:02:35.219Z,5.37
2019-02-16T05:05:05.813Z,6.20
2019-02-16T05:07:35.268Z,6.10
2019-02-16T05:10:06.652Z,6.25
2019-02-16T05:12:36.106Z,6.57
2019-02-16T05:15:08.701Z,5.80
2019-02-16T05:17:38.168Z,6.50
2019-02-16T05:20:08.480Z,7.93
2019-02-16T05:22:44.647Z,7.67
2019-02-16T05:25:09.204Z,7.27
2019-02-16T05:27:38.674Z,9.25
2019-02-16T05:30:09.638Z,5.93
2019-02-16T05:32:39.106Z,8.68
2019-02-16T05:35:08.698Z,7.77
2019-02-16T05:37:38.186Z,6.45
2019-02-16T05:40:09.391Z,7.40
2019-02-16T05:42:38.854Z,8.53
2019-02-16T05:45:09.651Z,8.20
2019-02-16T05:47:39.122Z,7.20
2019-02-16T05:50:08.675Z,7.63
2019-02-16T05:52:38.173Z,9.60
2019-02-16T05:55:07.967Z,7.42
2019-02-16T05:57:37.424Z,8.10
2019-02-16T06:00:11.380Z,8.95
2019-02-16T06:02:40.871Z,6.62
2019-02-16T06:05:10.406Z,8.93
2019-02-16T06:07:39.865Z,6.58
2019-02-16T06:10:09.514Z,10.93
2019-02-16T06:12:38.983Z,6.40
2019-02-16T06:15:09.910Z,9.83
2019-02-16T06:17:39.372Z,10.70
2019-02-16T06:20:09.873Z,6.08
2019-02-16T06:22:39.359Z,9.98
2019-02-16T06:25:08.902Z,6.60
2019-02-16T06:27:38.454Z,9.80
2019-02-16T06:30:09.365Z,9.70
2019-02-16T06:32:38.842Z,7.30
2019-02-16T06:35:10.079Z,10.13
2019-02-16T06:37:39.561Z,5.85
2019-02-16T06:40:09.106Z,10.37
2019-02-16T06:42:38.567Z,6.97
2019-02-16T06:45:08.331Z,8.90
2019-02-16T06:47:38.070Z,12.70
2019-02-16T06:50:07.658Z,7.97
2019-02-16T06:52:37.110Z,10.00
2019-02-16T06:55:06.728Z,9.17
2019-02-16T06:57:36.198Z,8.70
2019-02-16T07:00:09.053Z,13.37
2019-02-16T07:02:38.530Z,8.08
2019-02-16T07:05:08.526Z,9.53
2019-02-16T07:07:37.991Z,7.30
2019-02-16T07:10:09.714Z,10.37
2019-02-16T07:12:39.177Z,7.08
2019-02-16T07:15:08.929Z,8.80
2019-02-16T07:17:40.049Z,10.60
2019-02-16T07:20:10.213Z,7.43
2019-02-16T07:22:39.726Z,11.28
2019-02-16T07:25:09.315Z,8.50
2019-02-16T07:27:38.799Z,10.03
2019-02-16T07:30:11.697Z,10.37
2019-02-16T07:32:41.148Z,7.03
2019-02-16T07:35:10.695Z,9.17
2019-02-16T07:37:40.155Z,9.03
2019-02-16T07:40:09.613Z,11.20
2019-02-16T07:42:49.663Z,12.47
2019-02-16T07:45:26.965Z,13.50
2019-02-16T07:48:00.764Z,11.60
2019-02-16T07:50:31.865Z,13.67
2019-02-16T07:53:20.907Z,10.13
2019-02-16T07:55:52.003Z,11.50
2019-02-16T07:58:28.954Z,17.60
2019-02-16T08:01:00.312Z,10.10
2019-02-16T08:03:43.604Z,8.45
2019-02-16T08:06:14.697Z,9.28
2019-02-16T08:09:00.645Z,10.20
2019-02-16T08:11:43.306Z,8.70
2019-02-16T08:14:18.394Z,14.90
2019-02-16T08:16:52.185Z,9.13
2019-02-16T08:19:38.820Z,8.80
2019-02-16T08:22:24.472Z,8.07
2019-02-16T08:24:58.239Z,10.98
2019-02-16T08:27:35.049Z,9.10
2019-02-16T08:30:06.706Z,10.03
2019-02-16T08:32:41.071Z,8.57
2019-02-16T08:35:20.803Z,9.30
2019-02-16T08:37:54.371Z,9.90
2019-02-16T08:40:37.489Z,9.10
2019-02-16T08:43:21.549Z,8.40
2019-02-16T08:45:52.662Z,11.50
2019-02-16T08:48:23.758Z,12.40
2019-02-16T08:50:54.859Z,9.58
2019-02-16T08:53:49.371Z,10.17
2019-02-16T08:56:11.983Z,9.37
2019-02-16T08:58:49.972Z,9.17
2019-02-16T09:01:36.667Z,9.00
2019-02-16T09:04:25.381Z,13.17
2019-02-16T09:07:05.215Z,9.00
2019-02-16T09:09:52.001Z,9.03
2019-02-16T09:12:23.103Z,10.78
2019-02-16T09:14:54.201Z,10.80
2019-02-16T09:17:40.369Z,11.57
2019-02-16T09:20:27.584Z,11.23
2019-02-16T09:23:14.568Z,10.70
2019-02-16T09:26:00.456Z,9.57
2019-02-16T09:28:37.865Z,8.38
2019-02-16T09:31:11.378Z,11.67
2019-02-16T09:33:57.410Z,10.20
2019-02-16T09:36:32.287Z,9.00
2019-02-16T09:39:09.308Z,9.37
2019-02-16T09:41:44.254Z,9.50
2019-02-16T09:44:30.973Z,20.47
2019-02-16T09:47:05.199Z,10.00
2019-02-16T09:49:36.277Z,8.77
2019-02-16T09:52:16.452Z,9.70
2019-02-16T09:54:56.457Z,10.17
2019-02-16T09:57:34.364Z,9.80
2019-02-16T10:00:22.149Z,10.20
2019-02-16T10:02:53.225Z,8.10
2019-02-16T10:05:24.889Z,10.43
2019-02-16T10:08:11.812Z,8.00
2019-02-16T10:11:01.067Z,9.27
2019-02-16T10:13:37.945Z,10.33
2019-02-16T10:16:11.822Z,11.80
2019-02-16T10:18:45.321Z,10.50
2019-02-16T10:21:17.010Z,10.23
2019-02-16T10:23:46.262Z,7.60
2019-02-16T10:26:25.917Z,10.80
2019-02-16T10:29:08.841Z,8.43
2019-02-16T10:31:55.781Z,9.27
2019-02-16T10:34:26.899Z,10.83
2019-02-16T10:37:00.427Z,12.03
2019-02-16T10:39:31.545Z,9.53
2019-02-16T10:42:18.514Z,10.50
2019-02-16T10:45:05.495Z,13.17
2019-02-16T10:47:51.462Z,13.65
2019-02-16T10:50:25.262Z,10.73
2019-02-16T10:52:59.054Z,10.17
2019-02-16T10:55:48.389Z,9.87
2019-02-16T10:58:20.310Z,10.77
2019-02-16T11:00:57.093Z,9.90
2019-02-16T11:03:36.964Z,9.40
2019-02-16T11:06:24.029Z,8.50
2019-02-16T11:08:57.791Z,9.63
2019-02-16T11:11:34.292Z,10.60
2019-02-16T11:14:20.019Z,12.37
2019-02-16T11:16:57.121Z,10.93
2019-02-16T11:19:31.235Z,9.60
2019-02-16T11:22:05.153Z,14.03
2019-02-16T11:24:36.402Z,11.10
2019-02-16T11:27:23.453Z,10.87
2019-02-16T11:29:54.558Z,10.00
2019-02-16T11:32:28.315Z,10.47
2019-02-16T11:35:10.228Z,11.10
2019-02-16T11:37:46.937Z,8.10
2019-02-16T11:40:20.744Z,12.07
2019-02-16T11:42:54.589Z,10.57
2019-02-16T11:45:38.453Z,9.00
2019-02-16T11:48:09.551Z,10.20
2019-02-16T11:50:46.754Z,11.23
2019-02-16T11:53:36.051Z,13.07
2019-02-16T11:56:09.943Z,12.35
2019-02-16T11:58:56.861Z,13.60
2019-02-16T12:01:41.007Z,11.83
2019-02-16T12:04:27.947Z,15.17
2019-02-16T12:06:59.048Z,17.33
2019-02-16T12:09:30.161Z,19.32
2019-02-16T12:12:13.089Z,14.40
2019-02-16T12:14:44.770Z,10.53
2019-02-16T12:17:31.823Z,12.17
2019-02-16T12:20:02.960Z,12.63
2019-02-16T12:22:34.063Z,11.00
2019-02-16T12:25:07.846Z,15.95
2019-02-16T12:27:48.123Z,10.50
2019-02-16T12:30:23.082Z,12.20
2019-02-16T12:33:05.639Z,13.18
2019-02-16T12:35:52.842Z,15.10
2019-02-16T12:38:22.069Z,15.80
2019-02-16T12:40:55.617Z,10.50
2019-02-16T12:43:38.552Z,12.63
2019-02-16T12:46:12.436Z,14.60
2019-02-16T12:49:00.085Z,13.60
2019-02-16T12:51:46.029Z,12.35
2019-02-16T12:54:17.133Z,27.03
2019-02-16T12:56:57.043Z,13.60
2019-02-16T12:59:30.599Z,12.10
2019-02-16T13:02:10.550Z,12.57
2019-02-16T13:04:44.341Z,12.60
2019-02-16T13:07:15.469Z,12.70
2019-02-16T13:09:46.586Z,12.40
2019-02-16T13:12:23.092Z,12.37
2019-02-16T13:15:06.254Z,11.90
2019-02-16T13:17:45.925Z,14.00
2019-02-16T13:20:17.054Z,12.93
2019-02-16T13:22:48.175Z,17.63
2019-02-16T13:25:24.343Z,16.70
2019-02-16T13:27:52.120Z,16.63
2019-02-16T13:30:23.223Z,13.13
2019-02-16T13:33:08.313Z,12.67
2019-02-16T13:35:35.489Z,14.17
2019-02-16T13:38:15.410Z,14.83
2019-02-16T13:40:55.594Z,11.83
2019-02-16T13:43:27.742Z,11.80
2019-02-16T13:46:10.725Z,14.17
2019-02-16T13:48:53.539Z,13.00
2019-02-16T13:51:27.329Z,13.23
2019-02-16T13:54:03.859Z,14.20
2019-02-16T13:56:37.645Z,11.90
2019-02-16T13:59:08.750Z,15.10
2019-02-16T14:01:56.130Z,13.30
2019-02-16T14:04:38.751Z,14.00
2019-02-16T14:07:09.858Z,13.97
2019-02-16T14:09:39.092Z,15.00
2019-02-16T14:12:10.222Z,13.63
2019-02-16T14:14:41.327Z,15.53
2019-02-16T14:17:12.445Z,17.83
2019-02-16T14:19:41.913Z,12.23
2019-02-16T14:22:11.388Z,14.90
2019-02-16T14:24:51.215Z,16.93
2019-02-16T14:27:20.672Z,16.00
2019-02-16T14:29:50.229Z,15.53
2019-02-16T14:32:19.699Z,13.60
2019-02-16T14:34:49.170Z,11.80
2019-02-16T14:37:23.099Z,14.87
2019-02-16T14:39:52.565Z,19.67
2019-02-16T14:42:22.027Z,12.90
2019-02-16T14:44:51.512Z,14.63
2019-02-16T14:47:20.995Z,12.77
2019-02-16T14:49:50.470Z,14.60
2019-02-16T14:52:19.961Z,14.73
2019-02-16T14:54:49.445Z,17.60
2019-02-16T14:57:19.167Z,16.30
2019-02-16T14:59:48.667Z,13.97
2019-02-16T15:02:18.128Z,15.07
2019-02-16T15:04:47.585Z,12.23
2019-02-16T15:07:17.066Z,14.30
2019-02-16T15:09:46.542Z,12.40
2019-02-16T15:12:16.069Z,12.67
2019-02-16T15:14:45.560Z,16.27
2019-02-16T15:17:15.024Z,14.97
2019-02-16T15:19:44.521Z,13.47
2019-02-16T15:22:13.983Z,13.47
2019-02-16T15:24:43.445Z,17.30
2019-02-16T15:27:12.948Z,16.00
2019-02-16T15:29:42.391Z,16.10
2019-02-16T15:32:11.874Z,17.90
2019-02-16T15:34:41.349Z,17.87
2019-02-16T15:37:10.946Z,13.87
2019-02-16T15:39:40.431Z,13.50
2019-02-16T15:42:09.896Z,14.70
2019-02-16T15:44:39.607Z,17.27
2019-02-16T15:47:09.078Z,14.17
2019-02-16T15:49:38.574Z,17.13
2019-02-16T15:52:08.037Z,16.17
2019-02-16T15:54:37.565Z,15.47
2019-02-16T15:57:07.045Z,16.50
2019-02-16T15:59:39.560Z,15.90
2019-02-16T16:02:09.024Z,13.85
2019-02-16T16:04:38.511Z,17.00
2019-02-16T16:07:09.679Z,17.30
2019-02-16T16:09:55.615Z,15.43
2019-02-16T16:12:29.176Z,21.37
2019-02-16T16:15:16.294Z,18.60
2019-02-16T16:17:45.557Z,15.57
2019-02-16T16:20:28.103Z,16.63
2019-02-16T16:23:04.908Z,16.20
2019-02-16T16:25:36.010Z,15.63
2019-02-16T16:28:13.139Z,17.70
2019-02-16T16:30:50.158Z,13.17
2019-02-16T16:33:21.263Z,16.47
2019-02-16T16:35:52.392Z,16.07
2019-02-16T16:38:30.458Z,14.90
2019-02-16T16:41:14.728Z,18.10
2019-02-16T16:43:45.856Z,22.83
2019-02-16T16:46:17.542Z,23.98
2019-02-16T16:48:51.383Z,18.70
2019-02-16T16:51:28.267Z,19.37
2019-02-16T16:54:02.108Z,18.40
2019-02-16T16:56:48.762Z,18.60
2019-02-16T16:59:19.894Z,16.67
2019-02-16T17:01:49.120Z,16.20
2019-02-16T17:04:22.972Z,19.23
2019-02-16T17:06:54.151Z,22.30
2019-02-16T17:09:25.411Z,23.47
2019-02-16T17:12:12.473Z,31.93
2019-02-16T17:14:49.537Z,31.80
2019-02-16T17:17:26.331Z,35.90
2019-02-16T17:20:08.943Z,28.93
2019-02-16T17:22:40.062Z,16.90
2019-02-16T17:25:13.833Z,15.83
2019-02-16T17:27:44.914Z,26.57
2019-02-16T17:30:18.766Z,19.45
2019-02-16T17:33:04.402Z,16.12
2019-02-16T17:35:43.960Z,16.30
2019-02-16T17:38:13.189Z,14.53
2019-02-16T17:40:47.268Z,14.73
2019-02-16T17:43:18.387Z,18.48
2019-02-16T17:45:52.445Z,21.20
2019-02-16T17:48:29.214Z,16.60
2019-02-16T17:51:03.216Z,14.80
2019-02-16T17:53:32.444Z,14.97
2019-02-16T17:56:06.294Z,19.77
2019-02-16T17:58:50.099Z,20.70
2019-02-16T18:01:26.895Z,18.17
2019-02-16T18:04:13.806Z,22.03
2019-02-16T18:06:50.715Z,22.05
2019-02-16T18:09:24.506Z,18.37
2019-02-16T18:11:55.601Z,19.40
2019-02-16T18:14:30.285Z,44.00
2019-02-16T18:17:01.384Z,23.45
2019-02-16T18:19:32.494Z,22.90
2019-02-16T18:22:09.685Z,24.15
2019-02-16T18:24:56.874Z,21.50
2019-02-16T18:27:27.968Z,21.63
2019-02-16T18:29:57.175Z,20.10
2019-02-16T18:32:31.306Z,17.83
2019-02-16T18:35:23.797Z,22.40
2019-02-16T18:37:55.274Z,20.10
2019-02-16T18:40:31.809Z,21.37
2019-02-16T18:43:08.589Z,20.90
2019-02-16T18:45:51.478Z,17.95
2019-02-16T18:48:25.591Z,21.10
2019-02-16T18:51:12.523Z,22.37
2019-02-16T18:53:49.011Z,20.65
2019-02-16T18:56:19.457Z,16.43
2019-02-16T18:58:50.734Z,16.27
2019-02-16T19:01:27.916Z,15.53
2019-02-16T19:03:59.045Z,18.70
2019-02-16T19:06:46.316Z,17.30
2019-02-16T19:09:15.555Z,15.97
2019-02-16T19:11:55.517Z,16.50
2019-02-16T19:14:26.633Z,19.90
2019-02-16T19:16:57.722Z,17.87
2019-02-16T19:19:34.518Z,21.53
2019-02-16T19:22:07.257Z,20.50
2019-02-16T19:24:42.332Z,20.17
2019-02-16T19:27:18.879Z,19.37
2019-02-16T19:29:49.975Z,22.53
2019-02-16T19:32:21.080Z,18.63
2019-02-16T19:34:52.173Z,22.17
2019-02-16T19:37:28.963Z,21.47
2019-02-16T19:40:02.501Z,25.90
2019-02-16T19:42:36.629Z,23.27
2019-02-16T19:45:09.833Z,23.77
2019-02-16T19:47:49.789Z,27.50
2019-02-16T19:50:23.909Z,22.40
2019-02-16T19:53:01.014Z,25.62
2019-02-16T19:55:36.041Z,19.47
2019-02-16T19:58:17.157Z,23.07
2019-02-16T20:00:48.271Z,20.50
2019-02-16T20:03:32.080Z,25.57
2019-02-16T20:06:03.187Z,21.97
2019-02-16T20:08:32.453Z,18.83
2019-02-16T20:11:04.654Z,21.70
2019-02-16T20:13:39.555Z,19.20
2019-02-16T20:16:10.676Z,19.07
2019-02-16T20:18:41.764Z,17.97
2019-02-16T20:21:12.872Z,20.35
2019-02-16T20:23:53.010Z,19.40
2019-02-16T20:26:38.964Z,16.87
2019-02-16T20:29:10.057Z,19.10
2019-02-16T20:31:39.272Z,18.23
2019-02-16T20:34:21.854Z,27.20
2019-02-16T20:36:58.362Z,18.00
2019-02-16T20:39:45.494Z,21.80
2019-02-16T20:42:28.607Z,23.93
2019-02-16T20:45:02.401Z,21.43
2019-02-16T20:47:45.929Z,20.40
2019-02-16T20:50:32.580Z,19.52
2019-02-16T20:53:12.494Z,23.33
2019-02-16T20:55:41.819Z,20.77
2019-02-16T20:58:31.009Z,18.25
2019-02-16T21:01:02.096Z,20.30
2019-02-16T21:03:36.829Z,19.50
2019-02-16T21:06:07.956Z,20.60
2019-02-16T21:08:54.647Z,21.77
2019-02-16T21:11:25.756Z,23.40
2019-02-16T21:14:05.830Z,20.40
2019-02-16T21:16:45.653Z,22.10
2019-02-16T21:19:16.772Z,19.23
2019-02-16T21:21:48.649Z,20.40
2019-02-16T21:24:21.303Z,20.30
2019-02-16T21:26:58.196Z,19.23
2019-02-16T21:29:41.994Z,22.27
2019-02-16T21:32:11.260Z,20.93
2019-02-16T21:34:58.410Z,21.17
2019-02-16T21:37:35.190Z,21.80
2019-02-16T21:40:15.395Z,21.47
2019-02-16T21:42:55.314Z,16.05
2019-02-16T21:45:37.940Z,17.27
2019-02-16T21:48:14.449Z,19.90
2019-02-16T21:51:01.580Z,16.20
2019-02-16T21:53:36.895Z,16.20
2019-02-16T21:56:23.929Z,18.37
2019-02-16T21:58:57.697Z,17.80
2019-02-16T22:01:40.610Z,17.90
2019-02-16T22:04:26.740Z,18.17
2019-02-16T22:07:00.627Z,16.55
2019-02-16T22:09:37.651Z,18.10
2019-02-16T22:12:08.746Z,19.47
2019-02-16T22:14:38.220Z,20.30
2019-02-16T22:17:07.674Z,22.30
2019-02-16T22:19:37.147Z,21.57
2019-02-16T22:22:06.602Z,22.70
2019-02-16T22:24:36.127Z,22.00
2019-02-16T22:27:05.851Z,23.47
2019-02-16T22:29:35.302Z,20.30
2019-02-16T22:32:04.758Z,18.10
2019-02-16T22:34:34.234Z,16.00
2019-02-16T22:37:03.685Z,20.97
2019-02-16T22:39:33.161Z,19.90
2019-02-16T22:42:02.614Z,18.80
2019-02-16T22:44:32.082Z,20.10
2019-02-16T22:47:01.553Z,19.30
2019-02-16T22:49:31.082Z,18.10
2019-02-16T22:52:00.554Z,18.77
2019-02-16T22:54:30.006Z,20.50
2019-02-16T22:56:59.682Z,21.17
2019-02-16T22:59:29.116Z,15.03
2019-02-16T23:01:58.574Z,14.57
2019-02-16T23:04:28.050Z,16.50
2019-02-16T23:06:57.502Z,19.50
2019-02-16T23:09:27.739Z,18.60
2019-02-16T23:11:57.200Z,17.30
2019-02-16T23:14:26.652Z,21.80
2019-02-16T23:16:56.181Z,18.17
2019-02-16T23:19:25.720Z,15.10
2019-02-16T23:21:55.175Z,16.37
2019-02-16T23:24:24.643Z,15.00
2019-02-16T23:26:54.106Z,17.50
2019-02-16T23:29:23.559Z,20.15
2019-02-16T23:31:53.018Z,17.33
2019-02-16T23:34:22.502Z,20.35
2019-02-16T23:36:51.944Z,17.33
2019-02-16T23:39:21.398Z,17.50
2019-02-16T23:41:50.873Z,18.53
2019-02-16T23:44:20.330Z,17.67
2019-02-16T23:46:51.510Z,18.73
2019-02-16T23:49:21.149Z,19.40
2019-02-16T23:51:50.604Z,17.30
2019-02-16T23:54:20.071Z,17.33
2019-02-16T23:56:49.525Z,18.23
2019-02-16T23:59:19.007Z,19.30
